sensor_id;sensor_type;location;lat;lon;timestamp;temperature;humidity
28947;DHT22;16052;50.930;5.326;2023-05-07T00:01:45;17.10;99.90
28947;DHT22;16052;50.930;5.326;2023-05-07T00:04:10;17.10;99.90
28947;DHT22;16052;50.930;5.326;2023-05-07T00:06:36;17.10;99.90
28947;DHT22;16052;50.930;5.326;2023-05-07T00:09:02;17.20;99.90
28947;DHT22;16052;50.930;5.326;2023-05-07T00:11:28;17.50;99.90
28947;DHT22;16052;50.930;5.326;2023-05-07T00:13:54;17.90;99.90
28947;DHT22;16052;50.930;5.326;2023-05-07T00:16:20;18.20;99.90
28947;DHT22;16052;50.930;5.326;2023-05-07T00:18:46;18.30;99.90
28947;DHT22;16052;50.930;5.326;2023-05-07T00:21:11;18.30;99.90
28947;DHT22;16052;50.930;5.326;2023-05-07T00:23:37;18.20;99.90
28947;DHT22;16052;50.930;5.326;2023-05-07T00:26:03;18.10;99.90
28947;DHT22;16052;50.930;5.326;2023-05-07T00:28:29;18.20;99.90
28947;DHT22;16052;50.930;5.326;2023-05-07T00:30:55;18.30;99.90
28947;DHT22;16052;50.930;5.326;2023-05-07T00:33:20;18.50;99.90
28947;DHT22;16052;50.930;5.326;2023-05-07T00:35:47;18.60;99.90
28947;DHT22;16052;50.930;5.326;2023-05-07T00:38:13;18.50;99.90
28947;DHT22;16052;50.930;5.326;2023-05-07T00:40:39;18.60;99.90
28947;DHT22;16052;50.930;5.326;2023-05-07T00:43:05;18.60;99.90
28947;DHT22;16052;50.930;5.326;2023-05-07T00:45:33;18.50;99.90
28947;DHT22;16052;50.930;5.326;2023-05-07T00:48:00;18.70;99.90
28947;DHT22;16052;50.930;5.326;2023-05-07T00:50:27;18.60;99.90
28947;DHT22;16052;50.930;5.326;2023-05-07T00:52:53;18.70;99.40
28947;DHT22;16052;50.930;5.326;2023-05-07T00:55:19;18.60;99.90
28947;DHT22;16052;50.930;5.326;2023-05-07T00:57:45;18.50;99.90
28947;DHT22;16052;50.930;5.326;2023-05-07T01:00:12;18.60;99.90
28947;DHT22;16052;50.930;5.326;2023-05-07T01:02:41;18.60;99.90
28947;DHT22;16052;50.930;5.326;2023-05-07T01:05:11;18.70;99.70
28947;DHT22;16052;50.930;5.326;2023-05-07T01:07:40;18.70;98.10
28947;DHT22;16052;50.930;5.326;2023-05-07T01:10:07;18.80;96.10
28947;DHT22;16052;50.930;5.326;2023-05-07T01:12:35;18.70;97.20
28947;DHT22;16052;50.930;5.326;2023-05-07T01:15:03;18.60;98.10
28947;DHT22;16052;50.930;5.326;2023-05-07T01:17:29;18.60;99.10
28947;DHT22;16052;50.930;5.326;2023-05-07T01:19:55;18.70;98.20
28947;DHT22;16052;50.930;5.326;2023-05-07T01:22:34;18.60;97.80
28947;DHT22;16052;50.930;5.326;2023-05-07T01:24:59;18.60;97.60
28947;DHT22;16052;50.930;5.326;2023-05-07T01:27:27;18.60;99.40
28947;DHT22;16052;50.930;5.326;2023-05-07T01:29:53;18.60;96.00
28947;DHT22;16052;50.930;5.326;2023-05-07T01:32:32;18.60;95.50
28947;DHT22;16052;50.930;5.326;2023-05-07T01:35:00;18.60;96.20
28947;DHT22;16052;50.930;5.326;2023-05-07T01:37:26;18.60;96.80
28947;DHT22;16052;50.930;5.326;2023-05-07T01:39:52;18.60;96.20
28947;DHT22;16052;50.930;5.326;2023-05-07T01:42:18;18.40;98.60
28947;DHT22;16052;50.930;5.326;2023-05-07T01:44:44;18.30;99.90
28947;DHT22;16052;50.930;5.326;2023-05-07T01:47:12;18.40;99.90
28947;DHT22;16052;50.930;5.326;2023-05-07T01:49:38;18.40;99.30
28947;DHT22;16052;50.930;5.326;2023-05-07T01:52:04;18.50;97.00
28947;DHT22;16052;50.930;5.326;2023-05-07T01:54:30;18.60;97.30
28947;DHT22;16052;50.930;5.326;2023-05-07T01:56:58;18.60;95.80
28947;DHT22;16052;50.930;5.326;2023-05-07T01:59:24;18.50;97.00
28947;DHT22;16052;50.930;5.326;2023-05-07T02:01:50;18.50;97.70
28947;DHT22;16052;50.930;5.326;2023-05-07T02:04:16;18.50;96.70
28947;DHT22;16052;50.930;5.326;2023-05-07T02:06:41;18.40;99.90
28947;DHT22;16052;50.930;5.326;2023-05-07T02:09:07;18.30;99.90
28947;DHT22;16052;50.930;5.326;2023-05-07T02:11:34;18.20;99.90
28947;DHT22;16052;50.930;5.326;2023-05-07T02:14:00;18.20;99.90
28947;DHT22;16052;50.930;5.326;2023-05-07T02:16:25;18.20;99.90
28947;DHT22;16052;50.930;5.326;2023-05-07T02:18:51;18.30;99.90
28947;DHT22;16052;50.930;5.326;2023-05-07T02:21:17;18.40;99.90
28947;DHT22;16052;50.930;5.326;2023-05-07T02:23:43;18.20;99.90
28947;DHT22;16052;50.930;5.326;2023-05-07T02:26:08;18.00;99.90
28947;DHT22;16052;50.930;5.326;2023-05-07T02:28:34;18.10;99.90
28947;DHT22;16052;50.930;5.326;2023-05-07T02:31:05;17.50;99.90
28947;DHT22;16052;50.930;5.326;2023-05-07T02:33:31;17.20;99.90
28947;DHT22;16052;50.930;5.326;2023-05-07T02:36:05;17.20;99.90
28947;DHT22;16052;50.930;5.326;2023-05-07T02:38:31;17.20;99.90
28947;DHT22;16052;50.930;5.326;2023-05-07T02:40:56;17.40;99.90
28947;DHT22;16052;50.930;5.326;2023-05-07T02:43:22;17.60;99.90
28947;DHT22;16052;50.930;5.326;2023-05-07T02:45:48;17.80;99.90
28947;DHT22;16052;50.930;5.326;2023-05-07T02:48:13;18.00;99.90
28947;DHT22;16052;50.930;5.326;2023-05-07T02:50:39;18.00;99.90
28947;DHT22;16052;50.930;5.326;2023-05-07T02:53:04;18.00;99.90
28947;DHT22;16052;50.930;5.326;2023-05-07T02:55:30;18.00;99.90
28947;DHT22;16052;50.930;5.326;2023-05-07T02:57:56;17.90;99.90
28947;DHT22;16052;50.930;5.326;2023-05-07T03:00:22;17.80;99.90
28947;DHT22;16052;50.930;5.326;2023-05-07T03:02:48;18.00;99.90
28947;DHT22;16052;50.930;5.326;2023-05-07T03:05:13;18.10;99.90
28947;DHT22;16052;50.930;5.326;2023-05-07T03:07:39;18.20;99.90
28947;DHT22;16052;50.930;5.326;2023-05-07T03:10:06;18.10;99.90
28947;DHT22;16052;50.930;5.326;2023-05-07T03:12:32;18.20;99.90
28947;DHT22;16052;50.930;5.326;2023-05-07T03:14:57;18.20;99.90
28947;DHT22;16052;50.930;5.326;2023-05-07T03:17:23;18.20;99.90
28947;DHT22;16052;50.930;5.326;2023-05-07T03:19:49;18.10;99.90
28947;DHT22;16052;50.930;5.326;2023-05-07T03:22:15;18.10;99.90
28947;DHT22;16052;50.930;5.326;2023-05-07T03:24:41;18.20;99.90
28947;DHT22;16052;50.930;5.326;2023-05-07T03:27:06;18.20;99.90
28947;DHT22;16052;50.930;5.326;2023-05-07T03:29:32;18.20;99.90
28947;DHT22;16052;50.930;5.326;2023-05-07T03:31:58;18.10;99.90
28947;DHT22;16052;50.930;5.326;2023-05-07T03:34:23;18.20;99.90
28947;DHT22;16052;50.930;5.326;2023-05-07T03:36:49;18.20;99.90
28947;DHT22;16052;50.930;5.326;2023-05-07T03:39:15;18.10;99.90
28947;DHT22;16052;50.930;5.326;2023-05-07T03:41:41;18.00;99.90
28947;DHT22;16052;50.930;5.326;2023-05-07T03:44:07;17.70;99.90
28947;DHT22;16052;50.930;5.326;2023-05-07T03:46:33;17.50;99.90
28947;DHT22;16052;50.930;5.326;2023-05-07T03:48:59;17.50;99.90
28947;DHT22;16052;50.930;5.326;2023-05-07T03:51:25;17.60;99.90
28947;DHT22;16052;50.930;5.326;2023-05-07T03:53:51;17.80;99.90
28947;DHT22;16052;50.930;5.326;2023-05-07T03:56:19;17.90;99.90
28947;DHT22;16052;50.930;5.326;2023-05-07T03:58:47;17.90;99.90
28947;DHT22;16052;50.930;5.326;2023-05-07T04:01:13;17.90;99.90
28947;DHT22;16052;50.930;5.326;2023-05-07T04:03:39;17.80;99.90
28947;DHT22;16052;50.930;5.326;2023-05-07T04:06:04;17.80;99.90
28947;DHT22;16052;50.930;5.326;2023-05-07T04:08:30;17.70;99.90
28947;DHT22;16052;50.930;5.326;2023-05-07T04:10:56;17.70;99.90
28947;DHT22;16052;50.930;5.326;2023-05-07T04:13:22;17.60;99.90
28947;DHT22;16052;50.930;5.326;2023-05-07T04:15:48;17.50;99.90
28947;DHT22;16052;50.930;5.326;2023-05-07T04:18:15;17.50;99.90
28947;DHT22;16052;50.930;5.326;2023-05-07T04:20:41;17.70;99.90
28947;DHT22;16052;50.930;5.326;2023-05-07T04:23:07;17.80;99.90
28947;DHT22;16052;50.930;5.326;2023-05-07T04:25:32;17.80;99.90
28947;DHT22;16052;50.930;5.326;2023-05-07T04:27:58;17.80;99.90
28947;DHT22;16052;50.930;5.326;2023-05-07T04:30:24;17.80;99.90
28947;DHT22;16052;50.930;5.326;2023-05-07T04:32:50;17.90;99.90
28947;DHT22;16052;50.930;5.326;2023-05-07T04:35:16;18.00;99.90
28947;DHT22;16052;50.930;5.326;2023-05-07T04:37:42;18.10;99.90
28947;DHT22;16052;50.930;5.326;2023-05-07T04:40:08;18.10;99.90
28947;DHT22;16052;50.930;5.326;2023-05-07T04:42:34;18.10;99.90
28947;DHT22;16052;50.930;5.326;2023-05-07T04:45:00;18.10;99.90
28947;DHT22;16052;50.930;5.326;2023-05-07T04:47:26;18.00;99.90
28947;DHT22;16052;50.930;5.326;2023-05-07T04:49:52;18.10;99.90
28947;DHT22;16052;50.930;5.326;2023-05-07T04:52:17;18.10;99.90
28947;DHT22;16052;50.930;5.326;2023-05-07T04:54:43;18.20;99.90
28947;DHT22;16052;50.930;5.326;2023-05-07T04:57:09;18.10;99.90
28947;DHT22;16052;50.930;5.326;2023-05-07T04:59:34;18.10;99.90
28947;DHT22;16052;50.930;5.326;2023-05-07T05:02:00;18.00;99.90
28947;DHT22;16052;50.930;5.326;2023-05-07T05:04:26;17.90;99.90
28947;DHT22;16052;50.930;5.326;2023-05-07T05:06:52;17.70;99.90
28947;DHT22;16052;50.930;5.326;2023-05-07T05:09:18;17.80;99.90
28947;DHT22;16052;50.930;5.326;2023-05-07T05:11:44;17.80;99.90
28947;DHT22;16052;50.930;5.326;2023-05-07T05:14:10;17.80;99.90
28947;DHT22;16052;50.930;5.326;2023-05-07T05:16:35;17.70;99.90
28947;DHT22;16052;50.930;5.326;2023-05-07T05:19:02;17.60;99.90
28947;DHT22;16052;50.930;5.326;2023-05-07T05:21:27;17.40;99.90
28947;DHT22;16052;50.930;5.326;2023-05-07T05:23:53;17.30;99.90
28947;DHT22;16052;50.930;5.326;2023-05-07T05:26:19;17.10;99.90
28947;DHT22;16052;50.930;5.326;2023-05-07T05:28:46;16.90;99.90
28947;DHT22;16052;50.930;5.326;2023-05-07T05:31:12;16.70;99.90
28947;DHT22;16052;50.930;5.326;2023-05-07T05:33:39;16.40;99.90
28947;DHT22;16052;50.930;5.326;2023-05-07T05:36:05;16.60;99.90
28947;DHT22;16052;50.930;5.326;2023-05-07T05:38:31;16.80;99.90
28947;DHT22;16052;50.930;5.326;2023-05-07T05:40:57;16.70;99.90
28947;DHT22;16052;50.930;5.326;2023-05-07T05:43:23;16.50;99.90
28947;DHT22;16052;50.930;5.326;2023-05-07T05:45:49;16.70;99.90
28947;DHT22;16052;50.930;5.326;2023-05-07T05:48:14;16.80;99.90
28947;DHT22;16052;50.930;5.326;2023-05-07T05:50:41;16.90;99.90
28947;DHT22;16052;50.930;5.326;2023-05-07T05:53:07;17.00;99.90
28947;DHT22;16052;50.930;5.326;2023-05-07T05:55:33;17.10;99.90
28947;DHT22;16052;50.930;5.326;2023-05-07T05:58:01;17.20;99.90
28947;DHT22;16052;50.930;5.326;2023-05-07T06:00:28;17.50;99.90
28947;DHT22;16052;50.930;5.326;2023-05-07T06:02:53;17.60;99.90
28947;DHT22;16052;50.930;5.326;2023-05-07T06:05:19;17.70;99.90
28947;DHT22;16052;50.930;5.326;2023-05-07T06:07:45;17.90;99.90
28947;DHT22;16052;50.930;5.326;2023-05-07T06:10:10;17.80;99.90
28947;DHT22;16052;50.930;5.326;2023-05-07T06:12:36;17.80;99.90
28947;DHT22;16052;50.930;5.326;2023-05-07T06:15:02;17.60;99.90
28947;DHT22;16052;50.930;5.326;2023-05-07T06:17:28;17.80;99.90
28947;DHT22;16052;50.930;5.326;2023-05-07T06:19:53;17.90;99.90
28947;DHT22;16052;50.930;5.326;2023-05-07T06:22:19;18.10;99.90
28947;DHT22;16052;50.930;5.326;2023-05-07T06:24:45;18.20;99.90
28947;DHT22;16052;50.930;5.326;2023-05-07T06:27:11;18.30;99.90
28947;DHT22;16052;50.930;5.326;2023-05-07T06:29:37;18.20;99.90
28947;DHT22;16052;50.930;5.326;2023-05-07T06:32:07;18.20;99.90
28947;DHT22;16052;50.930;5.326;2023-05-07T06:34:33;18.30;99.90
28947;DHT22;16052;50.930;5.326;2023-05-07T06:36:58;18.40;99.90
28947;DHT22;16052;50.930;5.326;2023-05-07T06:39:24;18.20;99.90
28947;DHT22;16052;50.930;5.326;2023-05-07T06:41:50;18.30;99.90
28947;DHT22;16052;50.930;5.326;2023-05-07T06:44:15;18.40;99.90
28947;DHT22;16052;50.930;5.326;2023-05-07T06:46:41;18.50;99.90
28947;DHT22;16052;50.930;5.326;2023-05-07T06:49:07;18.70;99.90
28947;DHT22;16052;50.930;5.326;2023-05-07T06:51:33;18.60;99.90
28947;DHT22;16052;50.930;5.326;2023-05-07T06:53:59;18.60;99.90
28947;DHT22;16052;50.930;5.326;2023-05-07T06:56:24;18.70;99.90
28947;DHT22;16052;50.930;5.326;2023-05-07T06:58:50;18.70;99.90
28947;DHT22;16052;50.930;5.326;2023-05-07T07:01:16;18.70;99.90
28947;DHT22;16052;50.930;5.326;2023-05-07T07:03:41;18.40;99.90
28947;DHT22;16052;50.930;5.326;2023-05-07T07:06:07;18.40;99.90
28947;DHT22;16052;50.930;5.326;2023-05-07T07:08:33;18.40;99.90
28947;DHT22;16052;50.930;5.326;2023-05-07T07:11:00;18.40;99.90
28947;DHT22;16052;50.930;5.326;2023-05-07T07:13:25;18.30;99.90
28947;DHT22;16052;50.930;5.326;2023-05-07T07:15:57;18.40;99.90
28947;DHT22;16052;50.930;5.326;2023-05-07T07:18:22;18.20;99.90
28947;DHT22;16052;50.930;5.326;2023-05-07T07:20:48;18.20;99.90
28947;DHT22;16052;50.930;5.326;2023-05-07T07:23:14;18.30;99.90
28947;DHT22;16052;50.930;5.326;2023-05-07T07:25:40;18.30;99.90
28947;DHT22;16052;50.930;5.326;2023-05-07T07:28:06;18.50;99.90
28947;DHT22;16052;50.930;5.326;2023-05-07T07:30:31;18.70;99.40
28947;DHT22;16052;50.930;5.326;2023-05-07T07:32:57;18.80;96.90
28947;DHT22;16052;50.930;5.326;2023-05-07T07:35:29;18.90;94.90
28947;DHT22;16052;50.930;5.326;2023-05-07T07:37:55;18.90;91.10
28947;DHT22;16052;50.930;5.326;2023-05-07T07:40:21;18.90;80.60
28947;DHT22;16052;50.930;5.326;2023-05-07T07:42:47;19.00;78.40
28947;DHT22;16052;50.930;5.326;2023-05-07T07:45:12;19.10;77.20
28947;DHT22;16052;50.930;5.326;2023-05-07T07:47:39;19.20;73.30
28947;DHT22;16052;50.930;5.326;2023-05-07T07:50:06;19.30;78.20
28947;DHT22;16052;50.930;5.326;2023-05-07T07:52:32;19.40;84.70
28947;DHT22;16052;50.930;5.326;2023-05-07T07:54:58;19.40;82.00
28947;DHT22;16052;50.930;5.326;2023-05-07T07:57:24;19.40;78.50
28947;DHT22;16052;50.930;5.326;2023-05-07T07:59:50;19.30;72.70
28947;DHT22;16052;50.930;5.326;2023-05-07T08:02:16;19.20;68.40
28947;DHT22;16052;50.930;5.326;2023-05-07T08:04:42;19.30;71.50
28947;DHT22;16052;50.930;5.326;2023-05-07T08:07:10;19.40;71.10
28947;DHT22;16052;50.930;5.326;2023-05-07T08:09:40;19.50;62.10
28947;DHT22;16052;50.930;5.326;2023-05-07T08:12:06;19.60;62.20
28947;DHT22;16052;50.930;5.326;2023-05-07T08:14:33;19.60;66.10
28947;DHT22;16052;50.930;5.326;2023-05-07T08:16:59;19.60;65.40
28947;DHT22;16052;50.930;5.326;2023-05-07T08:19:25;19.50;67.60
28947;DHT22;16052;50.930;5.326;2023-05-07T08:21:50;19.50;72.20
28947;DHT22;16052;50.930;5.326;2023-05-07T08:24:17;19.60;71.80
28947;DHT22;16052;50.930;5.326;2023-05-07T08:26:44;19.60;72.50
28947;DHT22;16052;50.930;5.326;2023-05-07T08:29:10;19.60;72.90
28947;DHT22;16052;50.930;5.326;2023-05-07T08:31:36;19.70;77.30
28947;DHT22;16052;50.930;5.326;2023-05-07T08:34:04;19.60;77.60
28947;DHT22;16052;50.930;5.326;2023-05-07T08:36:30;19.70;75.50
28947;DHT22;16052;50.930;5.326;2023-05-07T08:38:56;19.70;81.70
28947;DHT22;16052;50.930;5.326;2023-05-07T08:41:22;19.80;76.80
28947;DHT22;16052;50.930;5.326;2023-05-07T08:43:49;19.80;80.70
28947;DHT22;16052;50.930;5.326;2023-05-07T08:46:22;19.80;79.10
28947;DHT22;16052;50.930;5.326;2023-05-07T08:48:49;19.80;83.50
28947;DHT22;16052;50.930;5.326;2023-05-07T08:51:17;20.00;67.90
28947;DHT22;16052;50.930;5.326;2023-05-07T08:53:44;20.10;64.30
28947;DHT22;16052;50.930;5.326;2023-05-07T08:56:11;20.00;58.60
28947;DHT22;16052;50.930;5.326;2023-05-07T08:58:37;20.00;51.60
28947;DHT22;16052;50.930;5.326;2023-05-07T09:01:12;20.00;56.10
28947;DHT22;16052;50.930;5.326;2023-05-07T09:03:39;20.00;55.50
28947;DHT22;16052;50.930;5.326;2023-05-07T09:06:05;19.90;59.00
28947;DHT22;16052;50.930;5.326;2023-05-07T09:08:32;20.00;63.70
28947;DHT22;16052;50.930;5.326;2023-05-07T09:10:59;20.10;49.90
28947;DHT22;16052;50.930;5.326;2023-05-07T09:13:24;20.20;52.60
28947;DHT22;16052;50.930;5.326;2023-05-07T09:15:50;20.20;54.90
28947;DHT22;16052;50.930;5.326;2023-05-07T09:18:16;20.20;64.50
28947;DHT22;16052;50.930;5.326;2023-05-07T09:20:42;20.30;55.90
28947;DHT22;16052;50.930;5.326;2023-05-07T09:23:08;20.30;45.80
28947;DHT22;16052;50.930;5.326;2023-05-07T09:25:35;20.30;52.20
28947;DHT22;16052;50.930;5.326;2023-05-07T09:28:02;20.30;55.90
28947;DHT22;16052;50.930;5.326;2023-05-07T09:30:32;20.40;60.60
28947;DHT22;16052;50.930;5.326;2023-05-07T09:32:59;20.30;56.80
28947;DHT22;16052;50.930;5.326;2023-05-07T09:35:25;20.30;58.30
28947;DHT22;16052;50.930;5.326;2023-05-07T09:37:56;20.20;67.50
28947;DHT22;16052;50.930;5.326;2023-05-07T09:40:28;20.30;72.10
28947;DHT22;16052;50.930;5.326;2023-05-07T09:42:54;20.30;73.00
28947;DHT22;16052;50.930;5.326;2023-05-07T09:45:27;20.40;58.90
28947;DHT22;16052;50.930;5.326;2023-05-07T09:47:57;20.30;60.00
28947;DHT22;16052;50.930;5.326;2023-05-07T09:50:28;20.40;54.30
28947;DHT22;16052;50.930;5.326;2023-05-07T09:52:55;20.30;43.70
28947;DHT22;16052;50.930;5.326;2023-05-07T09:55:22;20.20;50.80
28947;DHT22;16052;50.930;5.326;2023-05-07T09:57:50;20.10;41.10
28947;DHT22;16052;50.930;5.326;2023-05-07T10:00:19;19.90;48.60
28947;DHT22;16052;50.930;5.326;2023-05-07T10:02:51;19.70;54.10
28947;DHT22;16052;50.930;5.326;2023-05-07T10:05:21;19.70;56.40
28947;DHT22;16052;50.930;5.326;2023-05-07T10:07:47;19.70;63.30
28947;DHT22;16052;50.930;5.326;2023-05-07T10:10:13;19.60;64.90
28947;DHT22;16052;50.930;5.326;2023-05-07T10:12:40;19.60;63.50
28947;DHT22;16052;50.930;5.326;2023-05-07T10:15:09;19.40;69.00
28947;DHT22;16052;50.930;5.326;2023-05-07T10:17:39;19.30;77.30
28947;DHT22;16052;50.930;5.326;2023-05-07T10:20:06;19.30;74.90
28947;DHT22;16052;50.930;5.326;2023-05-07T10:22:44;19.30;75.80
28947;DHT22;16052;50.930;5.326;2023-05-07T10:25:19;19.30;76.70
28947;DHT22;16052;50.930;5.326;2023-05-07T10:27:48;19.20;86.10
28947;DHT22;16052;50.930;5.326;2023-05-07T10:33:01;19.10;93.90
28947;DHT22;16052;50.930;5.326;2023-05-07T10:35:36;19.10;91.20
28947;DHT22;16052;50.930;5.326;2023-05-07T10:38:03;19.00;93.80
28947;DHT22;16052;50.930;5.326;2023-05-07T10:40:30;19.00;95.30
28947;DHT22;16052;50.930;5.326;2023-05-07T10:43:01;19.00;94.70
28947;DHT22;16052;50.930;5.326;2023-05-07T10:45:28;18.90;95.90
28947;DHT22;16052;50.930;5.326;2023-05-07T10:48:11;18.90;98.10
28947;DHT22;16052;50.930;5.326;2023-05-07T10:50:46;19.00;99.10
28947;DHT22;16052;50.930;5.326;2023-05-07T10:55:50;19.00;99.90
28947;DHT22;16052;50.930;5.326;2023-05-07T11:00:50;19.00;99.90
28947;DHT22;16052;50.930;5.326;2023-05-07T11:03:17;18.90;98.60
28947;DHT22;16052;50.930;5.326;2023-05-07T11:05:42;18.90;99.90
28947;DHT22;16052;50.930;5.326;2023-05-07T11:08:09;18.90;99.90
28947;DHT22;16052;50.930;5.326;2023-05-07T11:10:53;18.80;99.90
28947;DHT22;16052;50.930;5.326;2023-05-07T11:13:43;18.80;99.90
28947;DHT22;16052;50.930;5.326;2023-05-07T11:16:28;18.80;99.90
28947;DHT22;16052;50.930;5.326;2023-05-07T11:18:56;18.70;99.90
28947;DHT22;16052;50.930;5.326;2023-05-07T11:21:41;18.80;99.90
28947;DHT22;16052;50.930;5.326;2023-05-07T11:24:10;18.70;99.90
28947;DHT22;16052;50.930;5.326;2023-05-07T11:26:46;18.80;99.90
28947;DHT22;16052;50.930;5.326;2023-05-07T11:29:20;18.70;99.90
28947;DHT22;16052;50.930;5.326;2023-05-07T11:31:54;18.70;99.90
28947;DHT22;16052;50.930;5.326;2023-05-07T11:34:24;18.70;99.90
28947;DHT22;16052;50.930;5.326;2023-05-07T11:36:50;18.60;99.90
28947;DHT22;16052;50.930;5.326;2023-05-07T11:39:32;18.50;99.90
28947;DHT22;16052;50.930;5.326;2023-05-07T11:42:02;18.50;99.90
28947;DHT22;16052;50.930;5.326;2023-05-07T11:44:41;18.50;99.90
28947;DHT22;16052;50.930;5.326;2023-05-07T11:47:06;18.40;99.90
28947;DHT22;16052;50.930;5.326;2023-05-07T11:49:32;18.30;99.90
28947;DHT22;16052;50.930;5.326;2023-05-07T11:51:59;18.30;99.90
28947;DHT22;16052;50.930;5.326;2023-05-07T11:54:25;18.30;99.90
28947;DHT22;16052;50.930;5.326;2023-05-07T11:56:51;18.30;99.90
28947;DHT22;16052;50.930;5.326;2023-05-07T11:59:18;18.20;99.90
28947;DHT22;16052;50.930;5.326;2023-05-07T12:01:46;18.30;99.90
28947;DHT22;16052;50.930;5.326;2023-05-07T12:04:12;18.30;99.90
28947;DHT22;16052;50.930;5.326;2023-05-07T12:06:38;18.30;99.90
28947;DHT22;16052;50.930;5.326;2023-05-07T12:09:04;18.40;99.90
28947;DHT22;16052;50.930;5.326;2023-05-07T12:11:32;18.60;99.90
28947;DHT22;16052;50.930;5.326;2023-05-07T12:13:58;18.70;99.90
28947;DHT22;16052;50.930;5.326;2023-05-07T12:16:24;18.70;99.90
28947;DHT22;16052;50.930;5.326;2023-05-07T12:18:51;18.80;99.90
28947;DHT22;16052;50.930;5.326;2023-05-07T12:21:18;18.80;99.90
28947;DHT22;16052;50.930;5.326;2023-05-07T12:23:44;18.80;99.90
28947;DHT22;16052;50.930;5.326;2023-05-07T12:26:10;18.90;99.90
28947;DHT22;16052;50.930;5.326;2023-05-07T12:28:38;19.00;99.90
28947;DHT22;16052;50.930;5.326;2023-05-07T12:31:04;19.10;99.90
28947;DHT22;16052;50.930;5.326;2023-05-07T12:33:31;19.10;99.90
28947;DHT22;16052;50.930;5.326;2023-05-07T12:35:58;19.00;99.90
28947;DHT22;16052;50.930;5.326;2023-05-07T12:38:36;19.00;99.90
28947;DHT22;16052;50.930;5.326;2023-05-07T12:41:02;19.00;99.90
28947;DHT22;16052;50.930;5.326;2023-05-07T12:43:29;19.10;99.90
28947;DHT22;16052;50.930;5.326;2023-05-07T12:45:58;19.20;99.90
28947;DHT22;16052;50.930;5.326;2023-05-07T12:48:26;19.30;99.90
28947;DHT22;16052;50.930;5.326;2023-05-07T12:50:54;19.20;99.90
28947;DHT22;16052;50.930;5.326;2023-05-07T12:53:22;19.20;99.90
28947;DHT22;16052;50.930;5.326;2023-05-07T12:55:50;19.20;99.90
28947;DHT22;16052;50.930;5.326;2023-05-07T12:58:35;19.20;99.90
28947;DHT22;16052;50.930;5.326;2023-05-07T13:01:05;19.20;99.90
28947;DHT22;16052;50.930;5.326;2023-05-07T13:03:32;19.30;99.90
28947;DHT22;16052;50.930;5.326;2023-05-07T13:06:00;19.30;99.90
28947;DHT22;16052;50.930;5.326;2023-05-07T13:08:37;19.30;99.90
28947;DHT22;16052;50.930;5.326;2023-05-07T13:11:08;19.30;99.90
28947;DHT22;16052;50.930;5.326;2023-05-07T13:13:35;19.40;99.90
28947;DHT22;16052;50.930;5.326;2023-05-07T13:16:04;19.40;99.90
28947;DHT22;16052;50.930;5.326;2023-05-07T13:18:31;19.50;99.90
28947;DHT22;16052;50.930;5.326;2023-05-07T13:20:57;19.60;99.90
28947;DHT22;16052;50.930;5.326;2023-05-07T13:23:23;19.60;99.90
28947;DHT22;16052;50.930;5.326;2023-05-07T13:25:50;19.60;99.90
28947;DHT22;16052;50.930;5.326;2023-05-07T13:28:16;19.80;99.90
28947;DHT22;16052;50.930;5.326;2023-05-07T13:30:42;19.80;99.90
28947;DHT22;16052;50.930;5.326;2023-05-07T13:33:08;19.90;99.90
28947;DHT22;16052;50.930;5.326;2023-05-07T13:35:34;19.90;99.90
28947;DHT22;16052;50.930;5.326;2023-05-07T13:38:00;20.00;99.90
28947;DHT22;16052;50.930;5.326;2023-05-07T13:40:26;20.00;99.90
28947;DHT22;16052;50.930;5.326;2023-05-07T13:42:51;20.10;99.90
28947;DHT22;16052;50.930;5.326;2023-05-07T13:45:20;20.00;99.90
28947;DHT22;16052;50.930;5.326;2023-05-07T13:47:46;20.10;99.90
28947;DHT22;16052;50.930;5.326;2023-05-07T13:50:12;20.30;91.40
28947;DHT22;16052;50.930;5.326;2023-05-07T13:52:44;20.20;89.10
28947;DHT22;16052;50.930;5.326;2023-05-07T13:55:17;20.10;92.90
28947;DHT22;16052;50.930;5.326;2023-05-07T13:57:43;19.70;99.90
28947;DHT22;16052;50.930;5.326;2023-05-07T14:00:09;19.60;99.90
28947;DHT22;16052;50.930;5.326;2023-05-07T14:02:36;19.70;99.90
28947;DHT22;16052;50.930;5.326;2023-05-07T14:05:01;19.70;99.90
28947;DHT22;16052;50.930;5.326;2023-05-07T14:07:27;19.70;99.90
28947;DHT22;16052;50.930;5.326;2023-05-07T14:09:54;19.70;99.90
28947;DHT22;16052;50.930;5.326;2023-05-07T14:12:20;19.80;99.90
28947;DHT22;16052;50.930;5.326;2023-05-07T14:14:46;19.90;98.90
28947;DHT22;16052;50.930;5.326;2023-05-07T14:17:12;20.00;97.30
28947;DHT22;16052;50.930;5.326;2023-05-07T14:19:38;20.00;97.00
28947;DHT22;16052;50.930;5.326;2023-05-07T14:22:04;20.10;86.60
28947;DHT22;16052;50.930;5.326;2023-05-07T14:24:29;20.10;86.40
28947;DHT22;16052;50.930;5.326;2023-05-07T14:26:56;20.00;92.30
28947;DHT22;16052;50.930;5.326;2023-05-07T14:29:21;20.10;95.40
28947;DHT22;16052;50.930;5.326;2023-05-07T14:31:48;20.10;97.30
28947;DHT22;16052;50.930;5.326;2023-05-07T14:34:13;20.20;99.60
28947;DHT22;16052;50.930;5.326;2023-05-07T14:36:39;20.30;99.90
28947;DHT22;16052;50.930;5.326;2023-05-07T14:39:05;20.30;99.90
28947;DHT22;16052;50.930;5.326;2023-05-07T14:41:30;20.40;97.50
28947;DHT22;16052;50.930;5.326;2023-05-07T14:43:58;20.40;97.90
28947;DHT22;16052;50.930;5.326;2023-05-07T14:46:24;20.60;89.00
28947;DHT22;16052;50.930;5.326;2023-05-07T14:48:51;20.50;82.70
28947;DHT22;16052;50.930;5.326;2023-05-07T14:51:16;20.40;74.70
28947;DHT22;16052;50.930;5.326;2023-05-07T14:53:42;20.20;86.70
28947;DHT22;16052;50.930;5.326;2023-05-07T14:56:08;20.10;93.00
28947;DHT22;16052;50.930;5.326;2023-05-07T14:58:34;20.10;92.10
28947;DHT22;16052;50.930;5.326;2023-05-07T15:01:00;20.20;88.80
28947;DHT22;16052;50.930;5.326;2023-05-07T15:03:26;20.20;90.60
28947;DHT22;16052;50.930;5.326;2023-05-07T15:05:52;20.00;95.40
28947;DHT22;16052;50.930;5.326;2023-05-07T15:08:18;19.80;98.20
28947;DHT22;16052;50.930;5.326;2023-05-07T15:10:44;19.70;99.90
28947;DHT22;16052;50.930;5.326;2023-05-07T15:13:11;19.70;96.70
28947;DHT22;16052;50.930;5.326;2023-05-07T15:15:38;19.80;94.50
28947;DHT22;16052;50.930;5.326;2023-05-07T15:18:03;19.90;90.90
28947;DHT22;16052;50.930;5.326;2023-05-07T15:20:30;20.00;90.40
28947;DHT22;16052;50.930;5.326;2023-05-07T15:22:55;20.10;88.40
28947;DHT22;16052;50.930;5.326;2023-05-07T15:25:22;20.20;91.10
28947;DHT22;16052;50.930;5.326;2023-05-07T15:27:48;20.20;93.00
28947;DHT22;16052;50.930;5.326;2023-05-07T15:30:14;20.30;90.20
28947;DHT22;16052;50.930;5.326;2023-05-07T15:32:41;20.30;78.70
28947;DHT22;16052;50.930;5.326;2023-05-07T15:35:08;20.20;72.20
28947;DHT22;16052;50.930;5.326;2023-05-07T15:37:37;20.10;70.40